Pagrindinis puslapis
METAR-TAF:

METAR-TAF

Oro uostai :

Rafha, Saudo Arabija

platuma: 29-37N, ilguma: 043-29E, Aukštis: 449 m

Dabartinis oras

Ataskaita buvo paskelbta 54 minutes, ne 14:00 UTC
Vėjas 5 kt iš Vakarų/Šiaurės Vakarų
Temperatūra 33°C
Drėgmė 9%
Slėgis 1010 hPa
Matomumas 10 km arba daugiau
nėra debesų žemiau 1500 m ir nėra kamuolinių lietaus debesų

METAR: OERF 181400Z 30005KT CAVOK 33/M04 Q1010 NOSIG

Laikas: 17:54 (14:54 UTC)

Prognozė

Ataskaita buvo paskelbta 3 valandos ir 54 minutes, ne 11:00 UTC
Prognozė galioja nuo 18 metu 12 UTC su 19 metu 18 UTC
Vėjas 8 kt iš Šiaurės/Šiaurės Vakarų
Matomumas 10 km arba daugiau
nėra debesų žemiau 1500 m ir nėra kamuolinių lietaus debesų
Tapsmas
nuo 18 metu 18 UTC su 18 metu 20 UTC
Vėjas 10 kt iš Pietų

TAF: OERF 181100Z 1812/1918 34008KT CAVOK BECMG 1818/1820 19010KT

Orai ataskaitas ir orų prognozės (METAR, TAF).

turimą stotys yra geltonos ir raudonos taškus žemėlapyje.

Perkelti pele per norėdami pamatyti stoties vardą.

Tada spustelėkite, norėdami matyti oro stebėjimo ir prognozės.

Norėdami pakeisti žemėlapį: spustelėkite ant žalios mygtukų su juodo kryžiaus žemyn,; žalią mygtuką su brūkšneliu, jei norite nutolinti; arba žalių rodyklių gretimoms žemėlapius.


METAR-TAF: